sensor_id;sensor_type;location;lat;lon;timestamp;P1;durP1;ratioP1;P2;durP2;ratioP2
77589;SDS011;66746;51.328;12.332;2023-01-19T00:01:41;13.98;;;7.25;;
77589;SDS011;66746;51.328;12.332;2023-01-19T00:04:06;13.27;;;7.70;;
77589;SDS011;66746;51.328;12.332;2023-01-19T00:06:32;12.48;;;7.93;;
77589;SDS011;66746;51.328;12.332;2023-01-19T00:08:58;15.13;;;8.02;;
77589;SDS011;66746;51.328;12.332;2023-01-19T00:11:24;14.75;;;8.15;;
77589;SDS011;66746;51.328;12.332;2023-01-19T00:13:49;11.75;;;9.10;;
77589;SDS011;66746;51.328;12.332;2023-01-19T00:16:15;12.13;;;10.60;;
77589;SDS011;66746;51.328;12.332;2023-01-19T00:18:41;10.43;;;7.68;;
77589;SDS011;66746;51.328;12.332;2023-01-19T00:21:06;17.00;;;10.35;;
77589;SDS011;66746;51.328;12.332;2023-01-19T00:23:33;15.63;;;7.72;;
77589;SDS011;66746;51.328;12.332;2023-01-19T00:26:00;16.77;;;9.18;;
77589;SDS011;66746;51.328;12.332;2023-01-19T00:28:26;13.52;;;6.85;;
77589;SDS011;66746;51.328;12.332;2023-01-19T00:30:51;13.32;;;9.57;;
77589;SDS011;66746;51.328;12.332;2023-01-19T00:33:16;11.63;;;7.22;;
77589;SDS011;66746;51.328;12.332;2023-01-19T00:35:42;11.52;;;7.07;;
77589;SDS011;66746;51.328;12.332;2023-01-19T00:38:07;13.00;;;7.82;;
77589;SDS011;66746;51.328;12.332;2023-01-19T00:40:34;13.10;;;9.32;;
77589;SDS011;66746;51.328;12.332;2023-01-19T00:43:00;13.98;;;8.40;;
77589;SDS011;66746;51.328;12.332;2023-01-19T00:45:26;13.32;;;10.00;;
77589;SDS011;66746;51.328;12.332;2023-01-19T00:47:51;14.15;;;8.77;;
77589;SDS011;66746;51.328;12.332;2023-01-19T00:50:17;12.10;;;9.25;;
77589;SDS011;66746;51.328;12.332;2023-01-19T00:52:43;13.32;;;8.00;;
77589;SDS011;66746;51.328;12.332;2023-01-19T00:55:09;12.63;;;7.80;;
77589;SDS011;66746;51.328;12.332;2023-01-19T00:57:36;12.68;;;9.40;;
77589;SDS011;66746;51.328;12.332;2023-01-19T01:00:04;13.10;;;9.38;;
77589;SDS011;66746;51.328;12.332;2023-01-19T01:02:31;11.80;;;6.50;;
77589;SDS011;66746;51.328;12.332;2023-01-19T01:04:56;14.35;;;8.15;;
77589;SDS011;66746;51.328;12.332;2023-01-19T01:07:22;12.82;;;9.85;;
77589;SDS011;66746;51.328;12.332;2023-01-19T01:09:48;13.43;;;7.80;;
77589;SDS011;66746;51.328;12.332;2023-01-19T01:12:13;12.20;;;7.28;;
77589;SDS011;66746;51.328;12.332;2023-01-19T01:14:38;14.40;;;7.82;;
77589;SDS011;66746;51.328;12.332;2023-01-19T01:17:05;15.95;;;10.90;;
77589;SDS011;66746;51.328;12.332;2023-01-19T01:19:31;12.10;;;7.93;;
77589;SDS011;66746;51.328;12.332;2023-01-19T01:21:56;13.65;;;7.43;;
77589;SDS011;66746;51.328;12.332;2023-01-19T01:24:21;10.82;;;7.20;;
77589;SDS011;66746;51.328;12.332;2023-01-19T01:26:46;15.43;;;8.20;;
77589;SDS011;66746;51.328;12.332;2023-01-19T01:29:12;11.25;;;6.82;;
77589;SDS011;66746;51.328;12.332;2023-01-19T01:31:37;11.40;;;7.25;;
77589;SDS011;66746;51.328;12.332;2023-01-19T01:34:04;13.75;;;9.68;;
77589;SDS011;66746;51.328;12.332;2023-01-19T01:36:29;13.02;;;7.68;;
77589;SDS011;66746;51.328;12.332;2023-01-19T01:38:55;15.15;;;8.68;;
77589;SDS011;66746;51.328;12.332;2023-01-19T01:41:20;11.85;;;9.20;;
77589;SDS011;66746;51.328;12.332;2023-01-19T01:43:46;15.88;;;9.32;;
77589;SDS011;66746;51.328;12.332;2023-01-19T01:46:12;10.18;;;6.88;;
77589;SDS011;66746;51.328;12.332;2023-01-19T01:48:38;14.30;;;7.38;;
77589;SDS011;66746;51.328;12.332;2023-01-19T01:51:08;13.23;;;8.32;;
77589;SDS011;66746;51.328;12.332;2023-01-19T01:53:38;13.63;;;8.73;;
77589;SDS011;66746;51.328;12.332;2023-01-19T01:56:06;14.05;;;9.23;;
77589;SDS011;66746;51.328;12.332;2023-01-19T01:58:35;11.73;;;8.55;;
77589;SDS011;66746;51.328;12.332;2023-01-19T02:01:02;12.00;;;9.13;;
77589;SDS011;66746;51.328;12.332;2023-01-19T02:03:29;11.30;;;6.47;;
77589;SDS011;66746;51.328;12.332;2023-01-19T02:05:55;10.48;;;9.38;;
77589;SDS011;66746;51.328;12.332;2023-01-19T02:08:26;11.75;;;8.38;;
77589;SDS011;66746;51.328;12.332;2023-01-19T02:10:56;13.23;;;9.85;;
77589;SDS011;66746;51.328;12.332;2023-01-19T02:13:22;10.10;;;8.40;;
77589;SDS011;66746;51.328;12.332;2023-01-19T02:15:49;9.27;;;8.48;;
77589;SDS011;66746;51.328;12.332;2023-01-19T02:18:16;10.20;;;8.50;;
77589;SDS011;66746;51.328;12.332;2023-01-19T02:20:44;11.70;;;8.48;;
77589;SDS011;66746;51.328;12.332;2023-01-19T02:23:17;9.85;;;8.95;;
77589;SDS011;66746;51.328;12.332;2023-01-19T02:25:50;11.07;;;7.85;;
77589;SDS011;66746;51.328;12.332;2023-01-19T02:28:17;12.60;;;9.38;;
77589;SDS011;66746;51.328;12.332;2023-01-19T02:30:42;10.75;;;7.90;;
77589;SDS011;66746;51.328;12.332;2023-01-19T02:33:08;11.18;;;5.93;;
77589;SDS011;66746;51.328;12.332;2023-01-19T02:35:34;10.85;;;8.52;;
77589;SDS011;66746;51.328;12.332;2023-01-19T02:38:02;11.27;;;8.00;;
77589;SDS011;66746;51.328;12.332;2023-01-19T02:40:28;12.73;;;8.63;;
77589;SDS011;66746;51.328;12.332;2023-01-19T02:42:55;16.25;;;8.05;;
77589;SDS011;66746;51.328;12.332;2023-01-19T02:45:23;10.60;;;9.50;;
77589;SDS011;66746;51.328;12.332;2023-01-19T02:47:49;12.20;;;10.95;;
77589;SDS011;66746;51.328;12.332;2023-01-19T02:53:13;12.77;;;6.28;;
77589;SDS011;66746;51.328;12.332;2023-01-19T02:55:49;10.95;;;8.35;;
77589;SDS011;66746;51.328;12.332;2023-01-19T02:58:22;7.90;;;5.32;;
77589;SDS011;66746;51.328;12.332;2023-01-19T03:00:58;9.13;;;5.38;;
77589;SDS011;66746;51.328;12.332;2023-01-19T03:03:33;11.05;;;7.60;;
77589;SDS011;66746;51.328;12.332;2023-01-19T03:06:10;7.90;;;4.82;;
77589;SDS011;66746;51.328;12.332;2023-01-19T03:08:46;10.43;;;7.13;;
77589;SDS011;66746;51.328;12.332;2023-01-19T03:11:18;9.00;;;5.78;;
77589;SDS011;66746;51.328;12.332;2023-01-19T03:13:46;9.88;;;7.97;;
77589;SDS011;66746;51.328;12.332;2023-01-19T03:18:46;6.88;;;6.10;;
77589;SDS011;66746;51.328;12.332;2023-01-19T03:21:15;7.85;;;5.50;;
77589;SDS011;66746;51.328;12.332;2023-01-19T03:23:43;9.50;;;6.68;;
77589;SDS011;66746;51.328;12.332;2023-01-19T03:26:10;8.52;;;5.07;;
77589;SDS011;66746;51.328;12.332;2023-01-19T03:28:40;8.23;;;4.95;;
77589;SDS011;66746;51.328;12.332;2023-01-19T03:31:10;8.68;;;4.80;;
77589;SDS011;66746;51.328;12.332;2023-01-19T03:33:39;7.75;;;6.20;;
77589;SDS011;66746;51.328;12.332;2023-01-19T03:36:10;7.40;;;4.72;;
77589;SDS011;66746;51.328;12.332;2023-01-19T03:38:39;10.43;;;6.40;;
77589;SDS011;66746;51.328;12.332;2023-01-19T03:41:07;9.88;;;6.93;;
77589;SDS011;66746;51.328;12.332;2023-01-19T03:43:35;7.13;;;6.45;;
77589;SDS011;66746;51.328;12.332;2023-01-19T03:46:03;5.93;;;5.35;;
77589;SDS011;66746;51.328;12.332;2023-01-19T03:48:32;9.25;;;4.85;;
77589;SDS011;66746;51.328;12.332;2023-01-19T03:51:00;6.32;;;3.47;;
77589;SDS011;66746;51.328;12.332;2023-01-19T03:53:27;6.40;;;5.35;;
77589;SDS011;66746;51.328;12.332;2023-01-19T03:55:53;8.00;;;7.10;;
77589;SDS011;66746;51.328;12.332;2023-01-19T03:58:18;7.55;;;4.50;;
77589;SDS011;66746;51.328;12.332;2023-01-19T04:00:43;7.88;;;6.78;;
77589;SDS011;66746;51.328;12.332;2023-01-19T04:03:10;9.73;;;6.38;;
77589;SDS011;66746;51.328;12.332;2023-01-19T04:05:39;6.13;;;4.22;;
77589;SDS011;66746;51.328;12.332;2023-01-19T04:08:04;6.65;;;3.88;;
77589;SDS011;66746;51.328;12.332;2023-01-19T04:10:30;6.88;;;5.45;;
77589;SDS011;66746;51.328;12.332;2023-01-19T04:12:56;6.55;;;4.65;;
77589;SDS011;66746;51.328;12.332;2023-01-19T04:15:21;6.97;;;5.65;;
77589;SDS011;66746;51.328;12.332;2023-01-19T04:17:47;7.97;;;6.20;;
77589;SDS011;66746;51.328;12.332;2023-01-19T04:20:14;6.40;;;5.80;;
77589;SDS011;66746;51.328;12.332;2023-01-19T04:22:41;6.63;;;4.05;;
77589;SDS011;66746;51.328;12.332;2023-01-19T04:25:07;4.95;;;4.45;;
77589;SDS011;66746;51.328;12.332;2023-01-19T04:27:33;6.75;;;4.45;;
77589;SDS011;66746;51.328;12.332;2023-01-19T04:29:58;8.65;;;6.88;;
77589;SDS011;66746;51.328;12.332;2023-01-19T04:32:24;6.38;;;3.95;;
77589;SDS011;66746;51.328;12.332;2023-01-19T04:34:49;11.07;;;8.00;;
77589;SDS011;66746;51.328;12.332;2023-01-19T04:37:14;7.30;;;4.53;;
77589;SDS011;66746;51.328;12.332;2023-01-19T04:39:41;6.35;;;4.57;;
77589;SDS011;66746;51.328;12.332;2023-01-19T04:42:06;7.65;;;6.70;;
77589;SDS011;66746;51.328;12.332;2023-01-19T04:44:32;8.33;;;7.37;;
77589;SDS011;66746;51.328;12.332;2023-01-19T04:46:57;8.73;;;6.60;;
77589;SDS011;66746;51.328;12.332;2023-01-19T04:49:22;8.50;;;4.83;;
77589;SDS011;66746;51.328;12.332;2023-01-19T04:51:47;8.82;;;6.78;;
77589;SDS011;66746;51.328;12.332;2023-01-19T04:54:13;7.33;;;6.60;;
77589;SDS011;66746;51.328;12.332;2023-01-19T04:56:39;8.45;;;7.00;;
77589;SDS011;66746;51.328;12.332;2023-01-19T04:59:05;8.35;;;4.47;;
77589;SDS011;66746;51.328;12.332;2023-01-19T05:01:30;11.48;;;6.90;;
77589;SDS011;66746;51.328;12.332;2023-01-19T05:03:57;9.82;;;8.52;;
77589;SDS011;66746;51.328;12.332;2023-01-19T05:06:22;9.77;;;7.38;;
77589;SDS011;66746;51.328;12.332;2023-01-19T05:08:48;11.18;;;5.80;;
77589;SDS011;66746;51.328;12.332;2023-01-19T05:11:13;8.35;;;5.22;;
77589;SDS011;66746;51.328;12.332;2023-01-19T05:13:40;10.30;;;8.10;;
77589;SDS011;66746;51.328;12.332;2023-01-19T05:16:05;10.63;;;7.88;;
77589;SDS011;66746;51.328;12.332;2023-01-19T05:18:32;9.65;;;6.22;;
77589;SDS011;66746;51.328;12.332;2023-01-19T05:20:57;12.40;;;6.80;;
77589;SDS011;66746;51.328;12.332;2023-01-19T05:23:23;11.88;;;9.13;;
77589;SDS011;66746;51.328;12.332;2023-01-19T05:25:48;9.55;;;7.82;;
77589;SDS011;66746;51.328;12.332;2023-01-19T05:28:13;9.35;;;7.97;;
77589;SDS011;66746;51.328;12.332;2023-01-19T05:30:40;10.45;;;8.07;;
77589;SDS011;66746;51.328;12.332;2023-01-19T05:33:06;12.23;;;8.13;;
77589;SDS011;66746;51.328;12.332;2023-01-19T05:35:31;9.45;;;7.97;;
77589;SDS011;66746;51.328;12.332;2023-01-19T05:37:56;10.70;;;8.52;;
77589;SDS011;66746;51.328;12.332;2023-01-19T05:40:22;9.63;;;8.45;;
77589;SDS011;66746;51.328;12.332;2023-01-19T05:42:47;12.05;;;8.57;;
77589;SDS011;66746;51.328;12.332;2023-01-19T05:45:12;11.73;;;8.23;;
77589;SDS011;66746;51.328;12.332;2023-01-19T05:47:39;10.38;;;8.63;;
77589;SDS011;66746;51.328;12.332;2023-01-19T05:50:04;11.20;;;9.43;;
77589;SDS011;66746;51.328;12.332;2023-01-19T05:52:30;9.68;;;8.35;;
77589;SDS011;66746;51.328;12.332;2023-01-19T05:54:55;11.93;;;9.55;;
77589;SDS011;66746;51.328;12.332;2023-01-19T05:57:21;12.07;;;9.23;;
77589;SDS011;66746;51.328;12.332;2023-01-19T05:59:47;11.60;;;7.38;;
77589;SDS011;66746;51.328;12.332;2023-01-19T06:02:12;10.70;;;7.07;;
77589;SDS011;66746;51.328;12.332;2023-01-19T06:04:39;13.45;;;8.88;;
77589;SDS011;66746;51.328;12.332;2023-01-19T06:07:04;12.40;;;10.23;;
77589;SDS011;66746;51.328;12.332;2023-01-19T06:09:29;14.80;;;10.73;;
77589;SDS011;66746;51.328;12.332;2023-01-19T06:11:54;11.13;;;9.50;;
77589;SDS011;66746;51.328;12.332;2023-01-19T06:14:20;12.07;;;10.13;;
77589;SDS011;66746;51.328;12.332;2023-01-19T06:16:45;12.90;;;8.52;;
77589;SDS011;66746;51.328;12.332;2023-01-19T06:19:10;17.17;;;7.50;;
77589;SDS011;66746;51.328;12.332;2023-01-19T06:21:46;12.82;;;7.22;;
77589;SDS011;66746;51.328;12.332;2023-01-19T06:24:12;13.63;;;10.50;;
77589;SDS011;66746;51.328;12.332;2023-01-19T06:26:37;12.55;;;7.95;;
77589;SDS011;66746;51.328;12.332;2023-01-19T06:29:03;12.30;;;9.10;;
77589;SDS011;66746;51.328;12.332;2023-01-19T06:31:28;10.05;;;7.07;;
77589;SDS011;66746;51.328;12.332;2023-01-19T06:33:53;12.77;;;10.27;;
77589;SDS011;66746;51.328;12.332;2023-01-19T06:36:18;13.40;;;11.63;;
77589;SDS011;66746;51.328;12.332;2023-01-19T06:38:45;14.63;;;9.45;;
77589;SDS011;66746;51.328;12.332;2023-01-19T06:41:10;13.30;;;8.52;;
77589;SDS011;66746;51.328;12.332;2023-01-19T06:43:36;16.23;;;11.57;;
77589;SDS011;66746;51.328;12.332;2023-01-19T06:46:01;14.20;;;8.70;;
77589;SDS011;66746;51.328;12.332;2023-01-19T06:48:26;14.85;;;10.85;;
77589;SDS011;66746;51.328;12.332;2023-01-19T06:50:52;15.55;;;10.90;;
77589;SDS011;66746;51.328;12.332;2023-01-19T06:53:17;11.65;;;7.63;;
77589;SDS011;66746;51.328;12.332;2023-01-19T06:55:44;14.48;;;8.15;;
77589;SDS011;66746;51.328;12.332;2023-01-19T06:58:09;14.60;;;10.60;;
77589;SDS011;66746;51.328;12.332;2023-01-19T07:00:35;16.60;;;11.15;;
77589;SDS011;66746;51.328;12.332;2023-01-19T07:03:00;11.48;;;10.05;;
77589;SDS011;66746;51.328;12.332;2023-01-19T07:05:25;15.07;;;8.88;;
77589;SDS011;66746;51.328;12.332;2023-01-19T07:07:51;15.50;;;10.50;;
77589;SDS011;66746;51.328;12.332;2023-01-19T07:10:17;14.38;;;9.13;;
77589;SDS011;66746;51.328;12.332;2023-01-19T07:12:44;16.35;;;11.23;;
77589;SDS011;66746;51.328;12.332;2023-01-19T07:15:09;16.42;;;11.75;;
77589;SDS011;66746;51.328;12.332;2023-01-19T07:17:34;15.15;;;9.95;;
77589;SDS011;66746;51.328;12.332;2023-01-19T07:20:00;13.77;;;8.45;;
77589;SDS011;66746;51.328;12.332;2023-01-19T07:22:25;17.65;;;13.35;;
77589;SDS011;66746;51.328;12.332;2023-01-19T07:24:50;16.10;;;12.23;;
77589;SDS011;66746;51.328;12.332;2023-01-19T07:27:15;17.53;;;10.63;;
77589;SDS011;66746;51.328;12.332;2023-01-19T07:29:42;17.60;;;11.27;;
77589;SDS011;66746;51.328;12.332;2023-01-19T07:32:07;15.30;;;10.40;;
77589;SDS011;66746;51.328;12.332;2023-01-19T07:34:33;14.93;;;9.38;;
77589;SDS011;66746;51.328;12.332;2023-01-19T07:36:58;15.30;;;11.15;;
77589;SDS011;66746;51.328;12.332;2023-01-19T07:39:23;14.73;;;8.90;;
77589;SDS011;66746;51.328;12.332;2023-01-19T07:41:49;14.70;;;12.05;;
77589;SDS011;66746;51.328;12.332;2023-01-19T07:44:14;16.05;;;8.77;;
77589;SDS011;66746;51.328;12.332;2023-01-19T07:46:41;18.48;;;9.02;;
77589;SDS011;66746;51.328;12.332;2023-01-19T07:49:06;16.20;;;11.65;;
77589;SDS011;66746;51.328;12.332;2023-01-19T07:51:32;17.48;;;12.52;;
77589;SDS011;66746;51.328;12.332;2023-01-19T07:53:57;17.73;;;11.05;;
77589;SDS011;66746;51.328;12.332;2023-01-19T07:56:22;14.65;;;11.30;;
77589;SDS011;66746;51.328;12.332;2023-01-19T07:58:48;12.32;;;8.13;;
77589;SDS011;66746;51.328;12.332;2023-01-19T08:01:13;15.63;;;11.40;;
77589;SDS011;66746;51.328;12.332;2023-01-19T08:03:40;15.63;;;12.17;;
77589;SDS011;66746;51.328;12.332;2023-01-19T08:06:05;16.60;;;11.15;;
77589;SDS011;66746;51.328;12.332;2023-01-19T08:08:31;15.55;;;11.75;;
77589;SDS011;66746;51.328;12.332;2023-01-19T08:10:58;14.50;;;9.40;;
77589;SDS011;66746;51.328;12.332;2023-01-19T08:13:23;15.85;;;8.95;;
77589;SDS011;66746;51.328;12.332;2023-01-19T08:15:49;14.77;;;12.63;;
77589;SDS011;66746;51.328;12.332;2023-01-19T08:18:14;15.75;;;9.45;;
77589;SDS011;66746;51.328;12.332;2023-01-19T08:20:41;12.48;;;8.55;;
77589;SDS011;66746;51.328;12.332;2023-01-19T08:23:06;14.10;;;10.75;;
77589;SDS011;66746;51.328;12.332;2023-01-19T08:25:32;15.43;;;11.32;;
77589;SDS011;66746;51.328;12.332;2023-01-19T08:27:59;14.05;;;10.82;;
77589;SDS011;66746;51.328;12.332;2023-01-19T08:30:24;15.88;;;11.38;;
77589;SDS011;66746;51.328;12.332;2023-01-19T08:32:49;13.00;;;7.80;;
77589;SDS011;66746;51.328;12.332;2023-01-19T08:35:15;12.30;;;7.65;;
77589;SDS011;66746;51.328;12.332;2023-01-19T08:37:41;14.27;;;9.13;;
77589;SDS011;66746;51.328;12.332;2023-01-19T08:40:07;10.80;;;9.68;;
77589;SDS011;66746;51.328;12.332;2023-01-19T08:42:33;12.50;;;7.75;;
77589;SDS011;66746;51.328;12.332;2023-01-19T08:44:59;13.32;;;11.23;;
77589;SDS011;66746;51.328;12.332;2023-01-19T08:47:24;11.40;;;9.30;;
77589;SDS011;66746;51.328;12.332;2023-01-19T08:49:49;13.70;;;9.98;;
77589;SDS011;66746;51.328;12.332;2023-01-19T08:52:14;13.00;;;8.03;;
77589;SDS011;66746;51.328;12.332;2023-01-19T08:54:44;14.68;;;10.93;;
77589;SDS011;66746;51.328;12.332;2023-01-19T08:57:09;14.43;;;9.52;;
77589;SDS011;66746;51.328;12.332;2023-01-19T08:59:35;13.88;;;12.20;;
77589;SDS011;66746;51.328;12.332;2023-01-19T09:02:00;12.18;;;8.73;;
77589;SDS011;66746;51.328;12.332;2023-01-19T09:04:25;12.75;;;9.20;;
77589;SDS011;66746;51.328;12.332;2023-01-19T09:06:50;14.55;;;10.45;;
77589;SDS011;66746;51.328;12.332;2023-01-19T09:09:16;17.90;;;11.52;;
77589;SDS011;66746;51.328;12.332;2023-01-19T09:11:43;12.07;;;10.57;;
77589;SDS011;66746;51.328;12.332;2023-01-19T09:14:08;13.07;;;10.73;;
77589;SDS011;66746;51.328;12.332;2023-01-19T09:16:34;15.20;;;11.80;;
77589;SDS011;66746;51.328;12.332;2023-01-19T09:19:00;13.48;;;7.95;;
77589;SDS011;66746;51.328;12.332;2023-01-19T09:21:25;15.43;;;9.95;;
77589;SDS011;66746;51.328;12.332;2023-01-19T09:23:50;13.52;;;10.82;;
77589;SDS011;66746;51.328;12.332;2023-01-19T09:26:16;12.48;;;11.07;;
77589;SDS011;66746;51.328;12.332;2023-01-19T09:28:42;13.10;;;8.73;;
77589;SDS011;66746;51.328;12.332;2023-01-19T09:31:08;14.10;;;9.10;;
77589;SDS011;66746;51.328;12.332;2023-01-19T09:33:34;13.07;;;11.32;;
77589;SDS011;66746;51.328;12.332;2023-01-19T09:35:59;12.43;;;8.82;;
77589;SDS011;66746;51.328;12.332;2023-01-19T09:38:25;11.25;;;8.63;;
77589;SDS011;66746;51.328;12.332;2023-01-19T09:40:51;14.27;;;8.93;;
77589;SDS011;66746;51.328;12.332;2023-01-19T09:43:23;13.73;;;12.20;;
77589;SDS011;66746;51.328;12.332;2023-01-19T09:46:11;13.65;;;10.63;;
77589;SDS011;66746;51.328;12.332;2023-01-19T09:48:41;14.38;;;8.65;;
77589;SDS011;66746;51.328;12.332;2023-01-19T09:51:09;13.77;;;11.52;;
77589;SDS011;66746;51.328;12.332;2023-01-19T09:56:27;13.38;;;10.30;;
77589;SDS011;66746;51.328;12.332;2023-01-19T09:58:54;16.73;;;8.82;;
77589;SDS011;66746;51.328;12.332;2023-01-19T10:01:30;13.40;;;9.65;;
77589;SDS011;66746;51.328;12.332;2023-01-19T10:04:20;11.98;;;8.75;;
77589;SDS011;66746;51.328;12.332;2023-01-19T10:06:55;16.08;;;10.70;;
77589;SDS011;66746;51.328;12.332;2023-01-19T10:09:30;13.20;;;8.98;;
77589;SDS011;66746;51.328;12.332;2023-01-19T10:12:01;14.23;;;9.68;;
77589;SDS011;66746;51.328;12.332;2023-01-19T10:14:33;14.10;;;11.85;;
77589;SDS011;66746;51.328;12.332;2023-01-19T10:17:11;13.18;;;9.52;;
77589;SDS011;66746;51.328;12.332;2023-01-19T10:19:46;14.57;;;11.45;;
77589;SDS011;66746;51.328;12.332;2023-01-19T10:22:21;11.95;;;8.60;;
77589;SDS011;66746;51.328;12.332;2023-01-19T10:24:48;13.07;;;10.07;;
77589;SDS011;66746;51.328;12.332;2023-01-19T10:27:19;13.20;;;7.93;;
77589;SDS011;66746;51.328;12.332;2023-01-19T10:32:24;15.73;;;9.23;;
77589;SDS011;66746;51.328;12.332;2023-01-19T10:34:54;13.77;;;9.15;;
77589;SDS011;66746;51.328;12.332;2023-01-19T10:37:24;11.73;;;7.90;;
77589;SDS011;66746;51.328;12.332;2023-01-19T10:39:53;15.35;;;10.85;;
77589;SDS011;66746;51.328;12.332;2023-01-19T10:42:21;13.60;;;11.38;;
77589;SDS011;66746;51.328;12.332;2023-01-19T10:44:46;14.23;;;11.38;;
77589;SDS011;66746;51.328;12.332;2023-01-19T10:47:16;14.90;;;8.85;;
77589;SDS011;66746;51.328;12.332;2023-01-19T10:49:44;14.23;;;12.70;;
77589;SDS011;66746;51.328;12.332;2023-01-19T10:52:23;15.73;;;10.55;;
77589;SDS011;66746;51.328;12.332;2023-01-19T10:54:53;12.68;;;8.25;;
77589;SDS011;66746;51.328;12.332;2023-01-19T10:57:21;12.23;;;8.18;;
77589;SDS011;66746;51.328;12.332;2023-01-19T10:59:52;12.20;;;10.65;;
77589;SDS011;66746;51.328;12.332;2023-01-19T11:02:18;11.57;;;8.10;;
77589;SDS011;66746;51.328;12.332;2023-01-19T11:04:53;12.85;;;10.82;;
77589;SDS011;66746;51.328;12.332;2023-01-19T11:07:20;12.18;;;10.98;;
77589;SDS011;66746;51.328;12.332;2023-01-19T11:09:48;12.30;;;9.68;;
77589;SDS011;66746;51.328;12.332;2023-01-19T11:12:34;14.07;;;10.27;;
77589;SDS011;66746;51.328;12.332;2023-01-19T11:15:08;12.75;;;11.30;;
77589;SDS011;66746;51.328;12.332;2023-01-19T11:17:38;10.13;;;7.90;;
77589;SDS011;66746;51.328;12.332;2023-01-19T11:20:16;12.82;;;10.73;;
77589;SDS011;66746;51.328;12.332;2023-01-19T11:22:44;13.13;;;10.13;;
77589;SDS011;66746;51.328;12.332;2023-01-19T11:25:18;11.98;;;10.05;;
77589;SDS011;66746;51.328;12.332;2023-01-19T11:27:48;12.50;;;7.10;;
77589;SDS011;66746;51.328;12.332;2023-01-19T11:30:23;13.43;;;8.15;;
77589;SDS011;66746;51.328;12.332;2023-01-19T11:32:54;14.27;;;9.48;;
77589;SDS011;66746;51.328;12.332;2023-01-19T11:35:29;13.88;;;8.98;;
77589;SDS011;66746;51.328;12.332;2023-01-19T11:38:04;12.30;;;8.68;;
77589;SDS011;66746;51.328;12.332;2023-01-19T11:40:30;13.60;;;10.82;;
77589;SDS011;66746;51.328;12.332;2023-01-19T11:42:57;13.10;;;8.55;;
77589;SDS011;66746;51.328;12.332;2023-01-19T11:45:22;13.77;;;8.27;;
77589;SDS011;66746;51.328;12.332;2023-01-19T11:47:50;13.80;;;10.10;;
77589;SDS011;66746;51.328;12.332;2023-01-19T11:50:20;12.68;;;8.45;;
77589;SDS011;66746;51.328;12.332;2023-01-19T11:52:50;16.08;;;8.50;;
77589;SDS011;66746;51.328;12.332;2023-01-19T11:55:21;10.77;;;9.60;;
77589;SDS011;66746;51.328;12.332;2023-01-19T11:57:54;10.45;;;7.38;;
77589;SDS011;66746;51.328;12.332;2023-01-19T12:00:24;10.25;;;6.75;;
77589;SDS011;66746;51.328;12.332;2023-01-19T12:02:53;11.68;;;9.35;;
77589;SDS011;66746;51.328;12.332;2023-01-19T12:05:22;12.05;;;10.00;;
77589;SDS011;66746;51.328;12.332;2023-01-19T12:07:54;13.13;;;8.48;;
77589;SDS011;66746;51.328;12.332;2023-01-19T12:10:22;13.77;;;10.10;;
77589;SDS011;66746;51.328;12.332;2023-01-19T12:12:50;12.13;;;9.10;;
77589;SDS011;66746;51.328;12.332;2023-01-19T12:15:29;11.70;;;10.02;;
77589;SDS011;66746;51.328;12.332;2023-01-19T12:17:59;13.05;;;10.25;;
77589;SDS011;66746;51.328;12.332;2023-01-19T12:20:28;12.07;;;9.80;;
77589;SDS011;66746;51.328;12.332;2023-01-19T12:23:16;10.82;;;9.60;;
77589;SDS011;66746;51.328;12.332;2023-01-19T12:25:57;10.75;;;8.95;;
77589;SDS011;66746;51.328;12.332;2023-01-19T12:28:48;12.15;;;9.70;;
77589;SDS011;66746;51.328;12.332;2023-01-19T12:31:16;10.93;;;9.70;;
77589;SDS011;66746;51.328;12.332;2023-01-19T12:33:44;11.90;;;9.48;;
77589;SDS011;66746;51.328;12.332;2023-01-19T12:36:10;11.68;;;6.72;;
77589;SDS011;66746;51.328;12.332;2023-01-19T12:39:12;10.57;;;9.20;;
77589;SDS011;66746;51.328;12.332;2023-01-19T12:41:43;9.43;;;6.82;;
77589;SDS011;66746;51.328;12.332;2023-01-19T12:44:19;11.98;;;7.63;;
77589;SDS011;66746;51.328;12.332;2023-01-19T12:46:52;9.88;;;6.40;;
77589;SDS011;66746;51.328;12.332;2023-01-19T12:49:25;11.32;;;9.38;;
77589;SDS011;66746;51.328;12.332;2023-01-19T12:51:54;11.98;;;7.35;;
77589;SDS011;66746;51.328;12.332;2023-01-19T12:54:42;9.82;;;6.60;;
77589;SDS011;66746;51.328;12.332;2023-01-19T12:57:17;11.05;;;6.07;;
77589;SDS011;66746;51.328;12.332;2023-01-19T12:59:54;13.75;;;7.90;;
77589;SDS011;66746;51.328;12.332;2023-01-19T13:05:24;11.60;;;10.02;;
77589;SDS011;66746;51.328;12.332;2023-01-19T13:08:30;10.85;;;7.50;;
77589;SDS011;66746;51.328;12.332;2023-01-19T13:11:28;12.38;;;8.63;;
77589;SDS011;66746;51.328;12.332;2023-01-19T13:17:02;12.18;;;9.98;;
77589;SDS011;66746;51.328;12.332;2023-01-19T13:25:27;12.77;;;9.70;;
77589;SDS011;66746;51.328;12.332;2023-01-19T13:28:00;12.07;;;9.65;;
77589;SDS011;66746;51.328;12.332;2023-01-19T13:42:39;11.60;;;7.65;;
77589;SDS011;66746;51.328;12.332;2023-01-19T13:45:14;11.48;;;9.45;;
77589;SDS011;66746;51.328;12.332;2023-01-19T13:50:40;9.35;;;7.05;;
77589;SDS011;66746;51.328;12.332;2023-01-19T13:59:59;11.98;;;9.32;;
77589;SDS011;66746;51.328;12.332;2023-01-19T14:03:14;9.15;;;7.43;;
77589;SDS011;66746;51.328;12.332;2023-01-19T14:06:22;10.05;;;8.95;;
77589;SDS011;66746;51.328;12.332;2023-01-19T14:12:57;13.45;;;10.05;;
77589;SDS011;66746;51.328;12.332;2023-01-19T14:30:18;10.05;;;8.98;;
77589;SDS011;66746;51.328;12.332;2023-01-19T14:39:20;10.63;;;7.22;;
77589;SDS011;66746;51.328;12.332;2023-01-19T14:41:49;10.70;;;6.78;;
77589;SDS011;66746;51.328;12.332;2023-01-19T14:44:16;9.65;;;8.35;;
77589;SDS011;66746;51.328;12.332;2023-01-19T14:46:46;9.27;;;6.32;;
77589;SDS011;66746;51.328;12.332;2023-01-19T14:49:15;9.93;;;8.63;;
77589;SDS011;66746;51.328;12.332;2023-01-19T14:51:45;11.30;;;10.10;;
77589;SDS011;66746;51.328;12.332;2023-01-19T14:54:15;9.88;;;8.95;;
77589;SDS011;66746;51.328;12.332;2023-01-19T14:56:44;12.18;;;8.45;;
77589;SDS011;66746;51.328;12.332;2023-01-19T14:59:09;9.90;;;8.90;;
77589;SDS011;66746;51.328;12.332;2023-01-19T15:01:34;12.27;;;7.35;;
77589;SDS011;66746;51.328;12.332;2023-01-19T15:04:00;7.68;;;6.57;;
77589;SDS011;66746;51.328;12.332;2023-01-19T15:06:40;8.63;;;6.75;;
77589;SDS011;66746;51.328;12.332;2023-01-19T15:12:03;9.10;;;7.38;;
77589;SDS011;66746;51.328;12.332;2023-01-19T15:14:34;9.60;;;6.82;;
77589;SDS011;66746;51.328;12.332;2023-01-19T15:18:29;12.63;;;8.70;;
77589;SDS011;66746;51.328;12.332;2023-01-19T15:23:57;10.40;;;7.00;;
77589;SDS011;66746;51.328;12.332;2023-01-19T15:26:25;11.07;;;8.20;;
77589;SDS011;66746;51.328;12.332;2023-01-19T15:32:17;9.88;;;7.72;;
77589;SDS011;66746;51.328;12.332;2023-01-19T15:35:20;10.07;;;6.57;;
77589;SDS011;66746;51.328;12.332;2023-01-19T15:38:04;9.45;;;7.35;;
77589;SDS011;66746;51.328;12.332;2023-01-19T15:40:56;8.98;;;6.88;;
77589;SDS011;66746;51.328;12.332;2023-01-19T15:43:27;9.07;;;6.75;;
77589;SDS011;66746;51.328;12.332;2023-01-19T15:49:53;12.90;;;7.22;;
77589;SDS011;66746;51.328;12.332;2023-01-19T15:52:20;12.75;;;10.50;;
77589;SDS011;66746;51.328;12.332;2023-01-19T15:54:57;9.27;;;6.95;;